createdAt,value
2019-04-22T00:01:28.615Z,11.80
2019-04-22T00:04:01.358Z,10.88
2019-04-22T00:06:51.700Z,10.50
2019-04-22T00:09:24.159Z,9.45
2019-04-22T00:11:52.881Z,8.45
2019-04-22T00:14:18.059Z,9.00
2019-04-22T00:16:51.682Z,8.78
2019-04-22T00:19:33.881Z,8.43
2019-04-22T00:21:55.233Z,8.00
2019-04-22T00:24:24.323Z,9.13
2019-04-22T00:26:59.614Z,8.55
2019-04-22T00:29:46.251Z,8.75
2019-04-22T00:31:59.026Z,7.90
2019-04-22T00:34:29.442Z,8.58
2019-04-22T00:37:02.116Z,8.90
2019-04-22T00:39:35.900Z,8.90
2019-04-22T00:42:08.082Z,8.73
2019-04-22T00:44:41.572Z,9.55
2019-04-22T00:47:08.659Z,8.30
2019-04-22T00:50:06.628Z,9.13
2019-04-22T00:52:09.618Z,11.43
2019-04-22T00:54:43.870Z,10.38
2019-04-22T00:57:10.440Z,9.78
2019-04-22T00:59:37.585Z,9.25
2019-04-22T01:02:13.145Z,8.95
2019-04-22T01:04:46.496Z,8.75
2019-04-22T01:07:15.488Z,8.15
2019-04-22T01:09:44.689Z,9.03
2019-04-22T01:12:13.831Z,8.80
2019-04-22T01:14:41.333Z,8.98
2019-04-22T01:17:11.595Z,9.63
2019-04-22T01:19:52.290Z,8.98
2019-04-22T01:22:17.768Z,9.00
2019-04-22T01:24:38.703Z,9.53
2019-04-22T01:27:10.534Z,10.40
2019-04-22T01:29:39.760Z,9.43
2019-04-22T01:31:56.446Z,10.20
2019-04-22T01:34:40.074Z,9.38
2019-04-22T01:37:18.763Z,10.08
2019-04-22T01:39:49.891Z,9.83
2019-04-22T01:42:20.216Z,9.50
2019-04-22T01:44:50.993Z,9.20
2019-04-22T01:47:25.135Z,9.55
2019-04-22T01:49:55.678Z,10.15
2019-04-22T01:52:24.789Z,9.53
2019-04-22T01:55:02.171Z,9.90
2019-04-22T01:57:22.949Z,10.20
2019-04-22T01:59:55.213Z,10.38
2019-04-22T02:02:31.080Z,9.85
2019-04-22T02:04:59.651Z,10.75
2019-04-22T02:07:29.524Z,10.78
2019-04-22T02:09:55.549Z,10.93
2019-04-22T02:12:36.792Z,10.90
2019-04-22T02:14:57.845Z,11.63
2019-04-22T02:17:41.536Z,11.75
2019-04-22T02:20:04.031Z,10.45
2019-04-22T02:22:50.855Z,10.43
2019-04-22T02:25:08.808Z,10.28
2019-04-22T02:27:43.754Z,11.05
2019-04-22T02:30:06.158Z,10.08
2019-04-22T02:32:52.022Z,9.43
2019-04-22T02:35:10.964Z,11.65
2019-04-22T02:37:35.831Z,9.88
2019-04-22T02:40:09.701Z,9.88
2019-04-22T02:42:35.052Z,9.60
2019-04-22T02:45:09.660Z,9.70
2019-04-22T02:47:42.194Z,10.80
2019-04-22T02:50:08.850Z,10.88
2019-04-22T03:00:27.376Z,10.88
2019-04-22T03:05:19.548Z,10.23
2019-04-22T03:07:54.374Z,9.30
2019-04-22T03:10:30.130Z,9.68
2019-04-22T03:12:41.887Z,9.05
2019-04-22T03:15:13.564Z,9.50
2019-04-22T03:17:45.252Z,10.20
2019-04-22T03:22:47.618Z,9.78
2019-04-22T03:37:52.618Z,8.00
2019-04-22T03:40:30.859Z,7.50
2019-04-22T03:42:59.700Z,7.70
2019-04-22T03:50:25.915Z,8.80
2019-04-22T03:57:51.915Z,8.85
2019-04-22T04:00:35.991Z,8.35
2019-04-22T04:05:50.285Z,9.18
2019-04-22T04:08:15.101Z,8.05
2019-04-22T04:10:35.331Z,8.23
2019-04-22T04:13:02.768Z,7.80
2019-04-22T04:17:55.050Z,7.42
2019-04-22T04:20:34.803Z,8.40
2019-04-22T04:28:29.832Z,6.90
2019-04-22T04:32:56.646Z,7.83
2019-04-22T04:37:55.644Z,7.22
2019-04-22T04:43:05.684Z,7.53
2019-04-22T04:50:44.119Z,9.65
2019-04-22T04:53:19.385Z,10.08
2019-04-22T05:00:58.020Z,10.35
2019-04-22T05:03:10.693Z,10.43
2019-04-22T05:05:39.615Z,10.78
2019-04-22T05:08:01.053Z,10.75
2019-04-22T05:10:49.720Z,10.72
2019-04-22T05:13:26.069Z,10.45
2019-04-22T05:15:55.337Z,10.08
2019-04-22T05:20:50.624Z,10.32
2019-04-22T05:23:07.355Z,9.93
2019-04-22T05:25:31.661Z,11.97
2019-04-22T05:28:10.340Z,10.98
2019-04-22T05:30:58.965Z,13.53
2019-04-22T05:33:18.973Z,12.18
2019-04-22T05:35:46.420Z,9.55
2019-04-22T05:38:22.008Z,10.43
2019-04-22T05:40:48.442Z,9.60
2019-04-22T05:43:14.038Z,8.85
2019-04-22T05:45:43.293Z,9.83
2019-04-22T05:48:18.866Z,9.35
2019-04-22T05:50:50.437Z,9.60
2019-04-22T05:53:16.548Z,10.60
2019-04-22T05:55:51.782Z,11.53
2019-04-22T05:58:15.333Z,11.65
2019-04-22T06:01:21.397Z,10.10
2019-04-22T06:03:32.948Z,10.35
2019-04-22T06:05:55.045Z,12.70
2019-04-22T06:08:31.019Z,12.35
2019-04-22T06:11:04.403Z,13.45
2019-04-22T06:13:27.869Z,14.93
2019-04-22T06:15:57.149Z,14.55
2019-04-22T06:18:35.860Z,14.07
2019-04-22T06:21:09.399Z,14.00
2019-04-22T06:26:09.872Z,13.80
2019-04-22T06:31:11.767Z,19.30
2019-04-22T06:33:34.853Z,29.72
2019-04-22T06:38:35.897Z,25.95
2019-04-22T06:41:09.075Z,31.10
2019-04-22T06:43:44.652Z,26.62
2019-04-22T06:46:29.936Z,22.87
2019-04-22T06:48:54.745Z,21.40
2019-04-22T06:51:26.992Z,19.90
2019-04-22T06:53:59.154Z,17.35
2019-04-22T06:56:22.045Z,23.52
2019-04-22T06:58:59.084Z,18.10
2019-04-22T07:01:36.921Z,23.75
2019-04-22T07:03:59.780Z,24.37
2019-04-22T07:11:23.737Z,14.40
2019-04-22T07:14:01.587Z,13.05
2019-04-22T07:16:32.358Z,11.78
2019-04-22T07:19:05.638Z,10.78
2019-04-22T07:21:30.509Z,10.05
2019-04-22T07:24:07.102Z,10.78
2019-04-22T07:26:29.183Z,8.73
2019-04-22T07:29:01.473Z,8.83
2019-04-22T07:31:37.290Z,8.88
2019-04-22T07:34:08.441Z,8.15
2019-04-22T07:39:03.977Z,10.48
2019-04-22T07:41:38.391Z,10.68
2019-04-22T07:44:13.190Z,11.00
2019-04-22T07:46:41.472Z,12.70
2019-04-22T07:51:49.506Z,9.83
2019-04-22T07:54:06.261Z,12.55
2019-04-22T07:56:40.962Z,11.75
2019-04-22T07:59:09.615Z,12.75
2019-04-22T08:01:35.582Z,12.98
2019-04-22T08:04:16.197Z,15.03
2019-04-22T08:06:46.036Z,11.88
2019-04-22T08:09:15.153Z,10.90
2019-04-22T08:14:14.482Z,13.32
2019-04-22T08:16:43.991Z,13.22
2019-04-22T08:19:15.497Z,14.93
2019-04-22T08:21:47.392Z,11.20
2019-04-22T08:24:17.962Z,9.25
2019-04-22T08:26:46.415Z,7.87
2019-04-22T08:29:23.172Z,6.97
2019-04-22T08:31:48.686Z,7.00
2019-04-22T08:37:11.825Z,7.67
2019-04-22T08:39:21.463Z,6.83
2019-04-22T08:41:43.800Z,8.08
2019-04-22T08:44:17.022Z,7.47
2019-04-22T08:46:56.158Z,8.18
2019-04-22T08:49:10.228Z,7.47
2019-04-22T08:51:49.079Z,7.80
2019-04-22T08:54:19.057Z,7.67
2019-04-22T08:56:58.158Z,7.12
2019-04-22T08:59:21.721Z,7.05
2019-04-22T09:01:51.851Z,8.10
2019-04-22T09:04:19.192Z,7.00
2019-04-22T09:09:24.992Z,7.22
2019-04-22T09:11:57.849Z,7.08
2019-04-22T09:14:28.111Z,7.15
2019-04-22T09:16:51.200Z,7.25
2019-04-22T09:19:25.054Z,7.87
2019-04-22T09:24:23.381Z,7.97
2019-04-22T09:26:55.223Z,7.08
2019-04-22T09:29:32.607Z,10.15
2019-04-22T09:32:01.773Z,9.38
2019-04-22T09:34:27.780Z,7.95
2019-04-22T09:37:07.839Z,9.00
2019-04-22T09:39:30.253Z,9.40
2019-04-22T09:42:02.516Z,7.95
2019-04-22T09:44:34.667Z,8.58
2019-04-22T09:47:05.135Z,6.90
2019-04-22T09:49:38.413Z,7.60
2019-04-22T09:52:00.081Z,8.30
2019-04-22T09:54:38.703Z,8.40
2019-04-22T09:57:01.824Z,6.75
2019-04-22T09:59:36.729Z,7.80
2019-04-22T10:04:34.950Z,8.85
2019-04-22T10:07:01.278Z,8.73
2019-04-22T10:09:51.784Z,10.20
2019-04-22T10:12:02.800Z,10.72
2019-04-22T10:14:42.500Z,15.03
2019-04-22T10:17:09.955Z,11.03
2019-04-22T10:19:37.728Z,11.48
2019-04-22T10:22:14.969Z,10.08
2019-04-22T10:24:43.251Z,10.70
2019-04-22T10:27:07.215Z,9.43
2019-04-22T10:29:41.931Z,8.38
2019-04-22T10:32:06.727Z,8.50
2019-04-22T10:34:26.979Z,8.18
2019-04-22T10:36:50.994Z,9.40
2019-04-22T10:39:16.258Z,10.28
2019-04-22T10:41:46.381Z,10.03
2019-04-22T10:44:15.375Z,8.78
2019-04-22T10:46:46.276Z,8.45
2019-04-22T10:49:15.977Z,7.60
2019-04-22T10:51:44.848Z,10.00
2019-04-22T10:54:13.643Z,9.38
2019-04-22T10:56:43.268Z,9.18
2019-04-22T10:59:11.906Z,9.18
2019-04-22T11:01:44.508Z,8.23
2019-04-22T11:04:13.363Z,8.65
2019-04-22T11:06:50.680Z,8.05
2019-04-22T11:09:12.882Z,7.83
2019-04-22T11:11:52.335Z,7.87
2019-04-22T11:14:13.140Z,8.15
2019-04-22T11:16:41.803Z,8.00
2019-04-22T11:19:11.857Z,8.53
2019-04-22T11:21:41.324Z,9.28
2019-04-22T11:24:12.608Z,18.60
2019-04-22T11:26:41.244Z,13.25
2019-04-22T11:29:10.218Z,9.83
2019-04-22T11:31:39.331Z,7.60
2019-04-22T11:34:08.929Z,7.30
2019-04-22T11:36:38.925Z,8.63
2019-04-22T11:39:10.832Z,8.08
2019-04-22T11:41:38.239Z,7.72
2019-04-22T11:44:07.579Z,7.83
2019-04-22T11:46:36.420Z,8.13
2019-04-22T11:49:05.852Z,8.90
2019-04-22T11:51:35.995Z,7.55
2019-04-22T11:54:05.265Z,8.30
2019-04-22T11:56:34.905Z,7.60
2019-04-22T11:59:04.856Z,7.80
2019-04-22T12:01:34.944Z,7.35
2019-04-22T12:04:04.149Z,9.03
2019-04-22T12:06:33.762Z,8.60
2019-04-22T12:09:03.841Z,8.10
2019-04-22T12:11:32.562Z,9.55
2019-04-22T12:14:02.125Z,8.13
2019-04-22T12:16:31.671Z,8.20
2019-04-22T12:19:00.892Z,7.90
2019-04-22T12:21:31.102Z,7.85
2019-04-22T12:24:01.105Z,6.75
2019-04-22T12:26:30.677Z,7.83
2019-04-22T12:28:59.592Z,7.80
2019-04-22T12:31:29.326Z,7.60
2019-04-22T12:33:59.306Z,8.10
2019-04-22T12:36:28.765Z,8.00
2019-04-22T12:38:58.037Z,7.97
2019-04-22T12:41:27.784Z,6.72
2019-04-22T12:43:56.746Z,6.17
2019-04-22T12:46:26.107Z,7.10
2019-04-22T12:48:56.259Z,6.83
2019-04-22T12:51:27.244Z,6.50
2019-04-22T12:53:57.180Z,6.03
2019-04-22T12:56:27.498Z,6.92
2019-04-22T12:58:56.761Z,6.70
2019-04-22T13:01:26.754Z,6.90
2019-04-22T13:04:02.047Z,5.80
2019-04-22T13:06:27.948Z,5.55
2019-04-22T13:08:57.212Z,5.95
2019-04-22T13:11:30.801Z,5.75
2019-04-22T13:13:56.750Z,6.10
2019-04-22T13:16:26.982Z,5.55
2019-04-22T13:19:00.138Z,5.78
2019-04-22T13:21:28.931Z,6.60
2019-04-22T13:23:59.099Z,6.28
2019-04-22T13:26:27.846Z,6.65
2019-04-22T13:28:56.948Z,6.05
2019-04-22T13:31:26.832Z,6.60
2019-04-22T13:33:59.715Z,6.75
2019-04-22T13:36:27.934Z,5.95
2019-04-22T13:38:56.516Z,5.53
2019-04-22T13:43:56.079Z,5.47
2019-04-22T13:46:26.360Z,6.97
2019-04-22T13:49:25.214Z,5.83
2019-04-22T13:51:52.850Z,6.05
2019-04-22T13:53:53.453Z,6.53
2019-04-22T13:56:49.093Z,6.15
2019-04-22T13:59:09.226Z,6.37
2019-04-22T14:01:30.262Z,7.70
2019-04-22T14:04:00.806Z,6.78
2019-04-22T14:06:29.425Z,6.70
2019-04-22T14:08:59.071Z,6.33
2019-04-22T14:11:39.040Z,7.20
2019-04-22T14:13:58.729Z,7.90
2019-04-22T14:16:28.990Z,7.17
2019-04-22T14:18:58.205Z,7.58
2019-04-22T14:21:27.120Z,7.00
2019-04-22T14:23:56.409Z,6.03
2019-04-22T14:26:25.217Z,6.03
2019-04-22T14:28:53.868Z,6.08
2019-04-22T14:31:22.579Z,7.00
2019-04-22T14:33:55.979Z,6.55
2019-04-22T14:36:21.656Z,7.40
2019-04-22T14:38:50.277Z,7.15
2019-04-22T14:44:12.633Z,7.75
2019-04-22T14:44:49.557Z,6.75
2019-04-22T14:46:49.863Z,8.05
2019-04-22T14:49:19.413Z,8.03
2019-04-22T14:51:45.891Z,7.50
2019-04-22T14:54:10.101Z,8.18
2019-04-22T14:56:22.450Z,8.23
2019-04-22T14:58:51.248Z,8.23
2019-04-22T15:01:21.085Z,7.80
2019-04-22T15:03:50.377Z,7.47
2019-04-22T15:06:22.339Z,7.30
2019-04-22T15:08:53.996Z,8.10
2019-04-22T15:11:21.445Z,8.18
2019-04-22T15:13:51.540Z,7.30
2019-04-22T15:16:25.847Z,7.30
2019-04-22T15:18:59.967Z,6.65
2019-04-22T15:21:32.476Z,7.78
2019-04-22T15:24:04.513Z,6.00
2019-04-22T15:26:34.629Z,5.67
2019-04-22T15:29:03.425Z,5.87
2019-04-22T15:31:33.243Z,5.28
2019-04-22T15:34:02.633Z,5.17
2019-04-22T15:36:32.402Z,4.35
2019-04-22T15:39:02.861Z,4.03
2019-04-22T15:41:32.654Z,4.97
2019-04-22T15:44:01.954Z,5.42
2019-04-22T15:46:31.938Z,5.40
2019-04-22T15:49:02.133Z,5.08
2019-04-22T15:51:31.964Z,4.45
2019-04-22T15:54:01.427Z,5.10
2019-04-22T15:56:30.647Z,5.37
2019-04-22T15:58:59.794Z,5.22
2019-04-22T16:01:34.034Z,5.22
2019-04-22T16:04:00.632Z,4.25
2019-04-22T16:06:30.120Z,5.22
2019-04-22T16:08:59.978Z,5.37
2019-04-22T16:11:29.734Z,4.72
2019-04-22T16:14:00.078Z,5.67
2019-04-22T16:16:30.371Z,5.50
2019-04-22T16:19:00.645Z,5.17
2019-04-22T16:21:39.760Z,5.15
2019-04-22T16:24:20.220Z,6.72
2019-04-22T16:26:51.849Z,6.95
2019-04-22T16:29:21.289Z,11.93
2019-04-22T16:31:51.476Z,9.75
2019-04-22T16:34:21.663Z,9.13
2019-04-22T16:36:50.375Z,7.28
2019-04-22T16:39:20.610Z,5.85
2019-04-22T16:41:50.806Z,5.72
2019-04-22T16:44:20.741Z,5.60
2019-04-22T16:46:50.039Z,5.55
2019-04-22T16:49:19.417Z,5.15
2019-04-22T16:51:48.280Z,6.58
2019-04-22T16:54:18.013Z,5.90
2019-04-22T16:56:48.001Z,4.87
2019-04-22T16:59:17.083Z,4.95
2019-04-22T17:01:48.495Z,5.62
2019-04-22T17:04:20.671Z,5.60
2019-04-22T17:06:51.104Z,4.78
2019-04-22T17:09:21.517Z,4.83
2019-04-22T17:11:52.008Z,4.87
2019-04-22T17:14:29.985Z,4.62
2019-04-22T17:16:52.744Z,5.80
2019-04-22T17:19:21.772Z,7.50
2019-04-22T17:21:50.978Z,7.25
2019-04-22T17:24:19.612Z,7.30
2019-04-22T17:26:48.475Z,6.58
2019-04-22T17:29:18.666Z,6.30
2019-04-22T17:31:54.512Z,8.23
2019-04-22T17:34:17.887Z,10.72
2019-04-22T17:36:46.715Z,11.80
2019-04-22T17:39:30.650Z,14.20
2019-04-22T17:42:03.341Z,15.80
2019-04-22T17:44:42.304Z,16.30
2019-04-22T17:47:02.468Z,14.80
2019-04-22T17:49:54.095Z,15.43
2019-04-22T17:54:53.809Z,14.23
2019-04-22T17:57:23.822Z,12.73
2019-04-22T17:59:53.440Z,11.95
2019-04-22T18:02:22.615Z,10.85
2019-04-22T18:04:42.902Z,10.25
2019-04-22T18:07:29.618Z,12.30
2019-04-22T18:12:35.729Z,11.63
2019-04-22T18:15:02.749Z,11.85
2019-04-22T18:17:32.253Z,11.22
2019-04-22T18:19:53.171Z,11.88
2019-04-22T18:22:19.768Z,14.25
2019-04-22T18:24:53.162Z,17.65
2019-04-22T18:27:40.189Z,18.17
2019-04-22T18:29:58.205Z,20.30
2019-04-22T18:32:21.766Z,19.10
2019-04-22T18:34:50.573Z,17.20
2019-04-22T18:37:19.905Z,11.03
2019-04-22T18:39:57.010Z,12.20
2019-04-22T18:42:24.388Z,8.83
2019-04-22T18:45:20.366Z,8.68
2019-04-22T18:47:25.401Z,8.10
2019-04-22T18:49:54.994Z,7.95
2019-04-22T18:52:48.757Z,8.60
2019-04-22T18:55:25.140Z,8.63
2019-04-22T18:58:11.676Z,7.22
2019-04-22T19:00:29.310Z,8.25
2019-04-22T19:03:03.855Z,10.15
2019-04-22T19:05:45.427Z,9.35
2019-04-22T19:08:23.048Z,9.25
2019-04-22T19:10:57.541Z,8.65
2019-04-22T19:13:50.119Z,8.48
2019-04-22T19:16:09.693Z,8.65
2019-04-22T19:18:31.907Z,8.98
2019-04-22T19:20:57.738Z,9.50
2019-04-22T19:23:28.468Z,9.25
2019-04-22T19:25:51.158Z,7.42
2019-04-22T19:28:29.181Z,6.70
2019-04-22T19:31:05.928Z,7.70
2019-04-22T19:33:28.958Z,8.85
2019-04-22T19:35:59.868Z,10.63
2019-04-22T19:38:16.366Z,10.98
2019-04-22T19:43:28.272Z,10.25
2019-04-22T19:45:58.954Z,9.38
2019-04-22T19:51:11.350Z,9.35
2019-04-22T19:53:37.132Z,11.40
2019-04-22T19:56:01.408Z,10.95
2019-04-22T19:58:32.433Z,10.90
2019-04-22T20:01:12.976Z,9.78
2019-04-22T20:04:03.439Z,9.45
2019-04-22T20:06:38.398Z,9.55
2019-04-22T20:09:13.692Z,8.60
2019-04-22T20:11:41.398Z,8.80
2019-04-22T20:14:12.687Z,7.75
2019-04-22T20:16:34.303Z,7.60
2019-04-22T20:19:12.385Z,8.68
2019-04-22T20:21:40.565Z,7.45
2019-04-22T20:24:00.819Z,8.30
2019-04-22T20:26:45.584Z,8.03
2019-04-22T20:29:11.718Z,7.58
2019-04-22T20:31:48.654Z,7.35
2019-04-22T20:34:14.428Z,7.05
2019-04-22T20:37:03.572Z,7.67
2019-04-22T20:39:09.188Z,8.65
2019-04-22T20:41:36.620Z,7.62
2019-04-22T20:44:15.949Z,7.35
2019-04-22T20:46:44.894Z,7.47
2019-04-22T20:49:20.711Z,7.53
2019-04-22T20:51:54.209Z,7.80
2019-04-22T20:54:17.828Z,9.28
2019-04-22T20:56:48.232Z,9.13
2019-04-22T20:59:19.038Z,7.28
2019-04-22T21:01:43.235Z,7.78
2019-04-22T21:04:05.247Z,7.22
2019-04-22T21:06:47.324Z,8.08
2019-04-22T21:09:22.075Z,7.37
2019-04-22T21:11:49.407Z,7.87
2019-04-22T21:14:17.782Z,8.55
2019-04-22T21:16:56.452Z,7.20
2019-04-22T21:19:38.579Z,9.20
2019-04-22T21:22:00.163Z,8.43
2019-04-22T21:24:23.635Z,7.97
2019-04-22T21:26:56.921Z,9.65
2019-04-22T21:29:21.817Z,9.45
2019-04-22T21:31:54.596Z,8.45
2019-04-22T21:34:23.324Z,8.55
2019-04-22T21:37:02.553Z,8.13
2019-04-22T21:39:28.999Z,7.55
2019-04-22T21:41:59.765Z,8.25
2019-04-22T21:44:32.387Z,6.83
2019-04-22T21:47:10.851Z,7.22
2019-04-22T21:49:38.989Z,7.45
2019-04-22T21:52:08.102Z,6.85
2019-04-22T21:54:45.503Z,7.22
2019-04-22T21:57:33.497Z,6.33
2019-04-22T21:59:46.251Z,6.42
2019-04-22T22:02:25.186Z,6.17
2019-04-22T22:04:48.954Z,6.30
2019-04-22T22:07:11.106Z,6.10
2019-04-22T22:09:53.944Z,6.50
2019-04-22T22:12:17.823Z,6.30
2019-04-22T22:15:00.526Z,6.12
2019-04-22T22:17:25.992Z,6.08
2019-04-22T22:19:52.892Z,6.62
2019-04-22T22:22:42.116Z,6.10
2019-04-22T22:25:00.035Z,6.47
2019-04-22T22:27:34.260Z,6.05
2019-04-22T22:30:06.829Z,6.87
2019-04-22T22:32:30.386Z,6.20
2019-04-22T22:35:03.837Z,6.62
2019-04-22T22:37:22.054Z,6.17
2019-04-22T22:39:54.515Z,7.10
2019-04-22T22:42:23.815Z,6.65
2019-04-22T22:44:48.660Z,7.12
2019-04-22T22:47:35.858Z,6.62
2019-04-22T22:50:03.265Z,6.95
2019-04-22T22:52:53.272Z,7.22
2019-04-22T22:55:03.893Z,6.92
2019-04-22T22:57:39.911Z,7.55
2019-04-22T23:00:05.029Z,7.28
2019-04-22T23:02:47.233Z,7.17
2019-04-22T23:05:09.573Z,7.53
2019-04-22T23:07:42.759Z,8.33
2019-04-22T23:10:09.609Z,7.42
2019-04-22T23:15:04.689Z,7.10
2019-04-22T23:17:25.435Z,7.97
2019-04-22T23:19:52.797Z,7.05
2019-04-22T23:22:30.254Z,7.33
2019-04-22T23:25:25.189Z,7.50
2019-04-22T23:27:53.999Z,7.58
2019-04-22T23:30:38.250Z,7.85
2019-04-22T23:33:18.744Z,7.67
2019-04-22T23:35:46.590Z,7.47
2019-04-22T23:38:15.406Z,8.05
2019-04-22T23:40:52.677Z,7.53
2019-04-22T23:43:28.826Z,7.55
2019-04-22T23:45:56.695Z,7.08
2019-04-22T23:48:21.071Z,7.78
2019-04-22T23:50:57.341Z,8.83
2019-04-22T23:53:42.372Z,7.70
2019-04-22T23:56:02.679Z,7.47
2019-04-22T23:58:48.139Z,8.65
